Harpswell, Maine
Current Conditions -  °F | °C
As of 4:51 PM on Friday 28 Nov 2014 (Local Time) from KPWM Reporting Station
Broken Clouds Broken Clouds  
Wind Chill: 21°   Ceiling: 5000
Heat Index: 31°   Visibility: 10mi
Dew Point: 18°   Wind: 14mph
Humidity: 59%   Direction: 310°NW
Pressure: 30.08"   Gusts: NA
Location:  43.74°N, 70.01°W
Report Text: KPWM 282151Z 31012KT 10SM BKN050 M01/M08 A3008 RMK AO2 SLP188 T10061078
Loading
Personal Weather Stations






























Interactive Weather Map New forecast layout! Learn more

10-Day Weather Forecast

Advertisements
Track Severe Weather on mobile